Time;durP1;ratioP1;P1;durP2;ratioP2;P2;SDS_P1;SDS_P2;PMS_P1;PMS_P2;Temp;Humidity;BMP_temperature;BMP_pressure;BME280_temperature;BME280_humidity;BME280_pressure;Samples;Min_cycle;Max_cycle;Signal;HPM_P1;HPM_P2
2023/11/03 00:03:44;;;;;;;3.03;2.30;;;10.30;99.90;;;;;;10298316;28;20720;-78
2023/11/03 00:08:46;;;;;;;2.53;1.73;;;10.30;99.90;;;;;;10293880;28;20208;-79
2023/11/03 00:13:49;;;;;;;2.20;2.10;;;10.30;99.90;;;;;;10293526;28;20231;-80
2023/11/03 00:18:51;;;;;;;2.23;2.00;;;10.30;99.90;;;;;;10323209;28;20657;-78
2023/11/03 00:23:53;;;;;;;4.27;2.07;;;10.20;99.90;;;;;;10305257;28;20216;-79
2023/11/03 00:28:56;;;;;;;3.30;2.10;;;10.20;99.90;;;;;;10299611;28;20640;-78
2023/11/03 00:33:59;;;;;;;3.50;2.57;;;10.30;99.90;;;;;;10300406;28;20311;-78
2023/11/03 00:39:00;;;;;;;4.40;2.37;;;10.30;99.90;;;;;;10302134;28;20208;-79
2023/11/03 00:44:04;;;;;;;2.70;2.50;;;10.20;99.90;;;;;;10302035;28;20227;-79
2023/11/03 00:49:07;;;;;;;22.30;12.07;;;10.20;99.90;;;;;;10317047;28;20200;-80
2023/11/03 00:54:09;;;;;;;18.37;9.70;;;10.10;99.90;;;;;;10320209;28;20273;-78
2023/11/03 00:59:12;;;;;;;7.53;4.37;;;10.10;99.90;;;;;;10320590;28;20196;-79
2023/11/03 01:04:14;;;;;;;8.90;4.53;;;10.10;99.90;;;;;;10318793;28;20250;-79
2023/11/03 01:09:19;;;;;;;8.23;4.40;;;9.90;99.90;;;;;;10319704;28;20208;-80
2023/11/03 01:14:23;;;;;;;7.27;3.00;;;9.80;99.90;;;;;;10312603;28;20231;-80
2023/11/03 01:19:25;;;;;;;4.40;1.90;;;9.80;99.90;;;;;;10324663;28;20291;-80
2023/11/03 01:24:27;;;;;;;2.87;2.20;;;9.70;99.90;;;;;;10316349;28;20534;-80
2023/11/03 01:29:31;;;;;;;2.47;1.90;;;9.70;99.90;;;;;;10321517;28;20235;-79
2023/11/03 01:34:32;;;;;;;2.20;2.10;;;9.70;99.90;;;;;;10330205;28;20223;-80
2023/11/03 01:39:34;;;;;;;3.27;2.33;;;9.70;99.90;;;;;;10330128;28;20674;-79
2023/11/03 01:44:38;;;;;;;2.10;1.90;;;9.70;99.90;;;;;;10330791;28;20227;-80
2023/11/03 01:49:40;;;;;;;2.63;1.93;;;9.70;99.90;;;;;;10330130;28;20235;-80
2023/11/03 01:54:42;;;;;;;2.67;2.13;;;9.70;99.90;;;;;;10326672;28;20582;-79
2023/11/03 01:59:47;;;;;;;3.37;2.30;;;9.60;99.90;;;;;;10312941;28;20654;-80
2023/11/03 02:04:49;;;;;;;4.00;2.27;;;9.60;99.90;;;;;;10324920;28;20715;-79
2023/11/03 02:09:54;;;;;;;2.30;1.90;;;9.60;99.90;;;;;;10324202;28;20210;-80
2023/11/03 02:14:57;;;;;;;3.77;2.80;;;9.50;99.90;;;;;;10329033;28;20246;-79
2023/11/03 02:19:59;;;;;;;3.73;2.40;;;9.50;99.90;;;;;;10330932;28;20234;-80
2023/11/03 02:25:03;;;;;;;2.40;2.20;;;9.40;99.90;;;;;;10327727;28;20458;-80
2023/11/03 02:30:06;;;;;;;3.13;2.27;;;9.30;99.90;;;;;;10325942;28;20235;-80
2023/11/03 02:35:09;;;;;;;4.00;2.47;;;9.20;99.90;;;;;;10334761;28;20243;-80
2023/11/03 02:40:13;;;;;;;3.80;2.30;;;9.20;99.90;;;;;;10324854;28;20235;-80
2023/11/03 02:45:15;;;;;;;3.90;2.50;;;9.20;99.90;;;;;;10334439;28;20263;-79
2023/11/03 02:50:17;;;;;;;3.00;2.00;;;9.30;99.90;;;;;;10335017;28;20450;-80
2023/11/03 02:55:20;;;;;;;2.43;2.23;;;9.30;99.90;;;;;;10326301;28;20278;-80
2023/11/03 03:00:23;;;;;;;6.90;3.00;;;9.30;99.90;;;;;;10336560;28;20219;-79
2023/11/03 03:05:25;;;;;;;3.60;2.20;;;9.40;99.90;;;;;;10333200;28;20302;-80
2023/11/03 03:10:28;;;;;;;2.60;2.23;;;9.40;99.90;;;;;;10319125;28;20613;-79
2023/11/03 03:15:30;;;;;;;2.27;2.07;;;9.40;99.90;;;;;;10330663;28;20220;-79
2023/11/03 03:20:32;;;;;;;2.30;2.20;;;9.40;99.90;;;;;;10330898;28;20755;-77
2023/11/03 03:25:35;;;;;;;2.70;2.40;;;9.50;99.90;;;;;;10328892;28;20273;-78
2023/11/03 03:30:37;;;;;;;3.30;2.43;;;9.50;99.90;;;;;;10331791;28;20282;-80
2023/11/03 03:35:39;;;;;;;2.90;2.60;;;9.60;99.90;;;;;;10328435;28;20327;-80
2023/11/03 03:40:42;;;;;;;3.70;2.30;;;9.60;99.90;;;;;;10326579;28;20251;-79
2023/11/03 03:45:45;;;;;;;5.50;2.40;;;9.60;99.90;;;;;;10312276;28;20258;-80
2023/11/03 03:50:46;;;;;;;6.37;2.60;;;9.70;99.90;;;;;;10322910;28;20711;-80
2023/11/03 03:55:50;;;;;;;2.37;2.10;;;9.70;99.90;;;;;;10298511;28;20640;-80
2023/11/03 04:00:52;;;;;;;2.63;2.43;;;9.70;99.90;;;;;;10302796;28;20291;-80
2023/11/03 04:05:54;;;;;;;2.50;2.30;;;9.80;99.90;;;;;;10322653;28;20310;-80
2023/11/03 04:10:57;;;;;;;2.33;1.73;;;9.80;99.90;;;;;;10299247;28;20524;-80
2023/11/03 04:15:59;;;;;;;3.60;2.40;;;9.80;99.90;;;;;;10304779;28;20281;-79
2023/11/03 04:21:01;;;;;;;3.43;2.10;;;9.80;99.90;;;;;;10319810;28;20613;-80
2023/11/03 04:26:04;;;;;;;2.83;2.20;;;9.80;99.90;;;;;;10307216;28;20219;-79
2023/11/03 04:31:07;;;;;;;2.80;2.37;;;9.90;99.90;;;;;;10311002;28;20196;-79
2023/11/03 04:36:10;;;;;;;2.70;2.20;;;10.00;99.90;;;;;;10334346;28;20311;-80
2023/11/03 04:41:13;;;;;;;3.13;2.50;;;10.00;99.90;;;;;;10327295;28;20255;-79
2023/11/03 04:46:15;;;;;;;5.33;2.20;;;10.00;99.90;;;;;;10306701;28;20592;-80
2023/11/03 04:51:17;;;;;;;3.83;2.23;;;10.10;99.90;;;;;;10326842;28;20204;-80
2023/11/03 04:56:20;;;;;;;4.53;2.27;;;10.10;99.90;;;;;;10309709;28;20322;-79
2023/11/03 05:01:22;;;;;;;5.33;3.00;;;10.20;99.90;;;;;;10320755;28;20205;-79
2023/11/03 05:06:24;;;;;;;3.27;2.73;;;10.30;99.90;;;;;;10307776;28;20685;-80
2023/11/03 05:11:28;;;;;;;4.77;2.47;;;10.40;99.90;;;;;;10331649;28;20248;-80
2023/11/03 05:16:31;;;;;;;3.43;2.83;;;10.40;99.90;;;;;;10315245;28;20279;-79
2023/11/03 05:21:33;;;;;;;2.50;2.30;;;10.40;99.90;;;;;;10332792;28;20208;-80
2023/11/03 05:26:36;;;;;;;3.33;2.40;;;10.50;99.90;;;;;;10312402;28;20223;-80
2023/11/03 05:31:38;;;;;;;2.47;2.23;;;10.50;99.90;;;;;;10305032;28;20671;-80
2023/11/03 05:36:40;;;;;;;3.03;1.80;;;10.50;99.90;;;;;;10311647;28;20228;-78
2023/11/03 05:41:43;;;;;;;2.60;2.40;;;10.50;99.90;;;;;;10314864;28;20196;-78
2023/11/03 05:46:45;;;;;;;5.77;2.50;;;10.40;99.90;;;;;;10339219;28;20220;-78
2023/11/03 05:51:47;;;;;;;4.43;1.50;;;10.50;99.90;;;;;;10304529;28;20726;-79
2023/11/03 05:56:50;;;;;;;3.40;2.20;;;10.40;99.90;;;;;;10312980;28;20282;-79
2023/11/03 06:01:52;;;;;;;2.53;2.17;;;10.40;99.90;;;;;;10336747;28;20258;-78
2023/11/03 06:06:54;;;;;;;2.53;2.07;;;10.50;99.90;;;;;;10314854;28;20218;-79
2023/11/03 06:11:57;;;;;;;2.07;1.90;;;10.40;99.90;;;;;;10337874;28;20310;-80
2023/11/03 06:16:59;;;;;;;2.40;2.07;;;10.40;99.90;;;;;;10328883;28;20223;-80
2023/11/03 06:22:00;;;;;;;3.00;1.80;;;10.40;99.90;;;;;;10331044;28;20235;-79
2023/11/03 06:27:04;;;;;;;2.90;2.27;;;10.40;99.90;;;;;;10332275;28;20250;-80
2023/11/03 06:32:07;;;;;;;2.80;2.10;;;10.50;99.90;;;;;;10330920;28;20231;-78
2023/11/03 06:37:10;;;;;;;3.33;2.50;;;10.50;99.90;;;;;;10332119;28;20238;-77
2023/11/03 06:42:13;;;;;;;2.83;2.10;;;10.50;99.90;;;;;;10314619;28;20196;-78
2023/11/03 06:47:15;;;;;;;3.40;1.97;;;10.50;99.90;;;;;;10309573;28;20244;-79
2023/11/03 06:52:17;;;;;;;5.43;2.17;;;10.60;99.90;;;;;;10313757;28;20196;-78
2023/11/03 06:57:20;;;;;;;5.53;2.80;;;10.60;99.90;;;;;;10324200;28;20218;-79
2023/11/03 07:02:22;;;;;;;3.77;2.43;;;10.50;99.90;;;;;;10320079;28;20199;-77
2023/11/03 07:07:24;;;;;;;2.83;2.50;;;10.50;99.90;;;;;;10331788;28;20748;-79
2023/11/03 07:12:27;;;;;;;3.20;2.30;;;10.50;99.90;;;;;;10313050;28;20246;-78
2023/11/03 07:17:29;;;;;;;2.53;2.23;;;10.50;99.90;;;;;;10333163;28;20223;-78
2023/11/03 07:22:31;;;;;;;3.43;2.40;;;10.60;99.90;;;;;;10329018;28;20737;-79
2023/11/03 07:27:34;;;;;;;3.27;2.53;;;10.60;99.90;;;;;;10324538;28;20231;-78
2023/11/03 07:32:36;;;;;;;2.60;2.40;;;10.60;99.90;;;;;;10323318;28;20200;-77
2023/11/03 07:37:38;;;;;;;3.00;2.70;;;10.70;99.90;;;;;;10301876;28;20228;-79
2023/11/03 07:42:42;;;;;;;3.10;1.80;;;10.70;99.90;;;;;;10314355;28;20202;-79
2023/11/03 07:47:44;;;;;;;2.93;2.30;;;10.70;99.90;;;;;;10315760;28;20196;-79
2023/11/03 07:52:46;;;;;;;3.67;2.20;;;10.70;99.90;;;;;;10319263;28;20224;-79
2023/11/03 07:57:50;;;;;;;2.10;1.90;;;10.80;99.90;;;;;;10320727;28;20220;-79
2023/11/03 08:02:51;;;;;;;3.57;2.40;;;10.80;99.90;;;;;;10334908;28;20246;-79
2023/11/03 08:07:54;;;;;;;2.80;2.00;;;10.90;99.90;;;;;;10321425;28;20391;-79
2023/11/03 08:12:58;;;;;;;2.40;2.00;;;11.00;99.90;;;;;;10319097;28;20615;-80
2023/11/03 08:18:01;;;;;;;5.60;2.20;;;11.00;99.90;;;;;;10315120;28;20720;-81
2023/11/03 08:23:04;;;;;;;4.60;2.20;;;11.00;99.90;;;;;;10350378;28;20219;-80
2023/11/03 08:28:08;;;;;;;2.40;2.20;;;11.10;99.90;;;;;;10333082;28;20203;-80
2023/11/03 08:33:10;;;;;;;2.20;2.00;;;11.10;99.90;;;;;;10317141;28;20226;-79
2023/11/03 08:38:13;;;;;;;1.70;1.60;;;11.10;99.90;;;;;;10318205;28;20220;-80
2023/11/03 08:43:20;;;;;;;2.10;1.90;;;11.20;99.90;;;;;;10332531;28;20246;-80
2023/11/03 08:48:23;;;;;;;2.50;2.30;;;11.20;99.90;;;;;;10336525;28;20616;-80
2023/11/03 08:53:25;;;;;;;1.60;1.50;;;11.30;99.90;;;;;;10343545;28;20225;-79
2023/11/03 08:58:30;;;;;;;2.03;1.80;;;11.40;99.90;;;;;;10339903;28;20223;-80
2023/11/03 09:03:31;;;;;;;4.87;2.23;;;11.40;99.90;;;;;;10340848;28;20417;-80
2023/11/03 09:08:34;;;;;;;3.37;2.30;;;11.60;99.90;;;;;;10332378;28;20283;-80
2023/11/03 09:13:50;;;;;;;2.17;1.97;;;11.70;99.90;;;;;;10328454;28;20235;-79
2023/11/03 09:18:52;;;;;;;4.53;2.40;;;11.70;99.90;;;;;;10330236;28;20246;-79
2023/11/03 09:23:54;;;;;;;3.20;1.80;;;11.60;99.90;;;;;;10326053;28;20250;-79
2023/11/03 09:28:58;;;;;;;2.60;1.60;;;11.70;99.90;;;;;;10329093;28;20211;-80
2023/11/03 09:33:59;;;;;;;3.23;2.90;;;11.70;99.90;;;;;;10337541;28;20232;-80
2023/11/03 09:39:04;;;;;;;2.30;1.30;;;11.80;99.90;;;;;;10352261;28;20678;-81
2023/11/03 09:44:08;;;;;;;2.57;2.37;;;11.90;99.90;;;;;;10317651;28;20238;-80
2023/11/03 09:49:10;;;;;;;3.60;2.00;;;11.90;99.90;;;;;;10339884;28;20202;-80
2023/11/03 09:54:12;;;;;;;2.40;2.20;;;11.90;99.90;;;;;;10334618;28;20223;-80
2023/11/03 09:59:17;;;;;;;3.80;1.77;;;12.00;99.90;;;;;;10342781;28;20222;-81
2023/11/03 10:04:20;;;;;;;3.00;2.80;;;12.00;99.90;;;;;;10341149;28;20717;-79
2023/11/03 10:09:23;;;;;;;1.80;1.70;;;12.10;99.90;;;;;;10334642;28;20203;-80
2023/11/03 10:14:27;;;;;;;2.03;1.93;;;12.10;99.90;;;;;;10333584;28;20283;-81
2023/11/03 10:19:30;;;;;;;2.70;1.60;;;12.20;99.90;;;;;;10339774;28;20681;-81
2023/11/03 10:24:33;;;;;;;2.43;1.70;;;12.20;99.90;;;;;;10332079;28;20294;-81
2023/11/03 10:29:36;;;;;;;1.70;1.60;;;12.30;99.90;;;;;;10311499;28;20259;-81
2023/11/03 10:34:41;;;;;;;2.17;1.97;;;12.30;99.90;;;;;;10318924;28;20290;-81
2023/11/03 10:39:45;;;;;;;2.17;1.87;;;12.30;99.90;;;;;;10333456;28;20223;-81
2023/11/03 10:44:50;;;;;;;2.73;2.53;;;12.50;99.90;;;;;;10339065;28;20223;-81
2023/11/03 10:49:57;;;;;;;1.80;1.63;;;12.50;99.90;;;;;;10348109;28;20195;-81
2023/11/03 10:55:04;;;;;;;1.73;1.60;;;12.60;99.90;;;;;;10309335;28;20232;-81
2023/11/03 11:00:17;;;;;;;1.33;1.23;;;12.70;99.90;;;;;;10311239;28;20277;-81
2023/11/03 11:05:24;;;;;;;1.50;1.40;;;12.70;99.90;;;;;;10314733;28;20227;-81
2023/11/03 11:10:36;;;;;;;1.57;1.47;;;12.70;99.90;;;;;;10306717;28;20196;-81
2023/11/03 11:15:43;;;;;;;1.67;1.57;;;12.60;99.90;;;;;;10309094;28;20228;-81
2023/11/03 11:20:53;;;;;;;1.20;1.20;;;12.70;99.90;;;;;;10310642;28;20211;-81
2023/11/03 11:25:56;;;;;;;2.73;1.70;;;12.70;99.90;;;;;;10329011;28;20311;-81
2023/11/03 11:30:59;;;;;;;1.63;1.53;;;12.70;99.70;;;;;;10321147;28;20219;-81
2023/11/03 11:36:20;;;;;;;1.50;1.30;;;12.70;99.70;;;;;;10306425;28;20251;-81
2023/11/03 11:41:25;;;;;;;1.40;1.30;;;12.70;99.00;;;;;;10337649;28;20310;-81
2023/11/03 11:46:29;;;;;;;1.60;1.50;;;12.70;99.70;;;;;;10352123;28;20246;-81
2023/11/03 11:51:31;;;;;;;1.43;1.33;;;12.70;99.70;;;;;;10314870;28;20635;-81
2023/11/03 11:56:33;;;;;;;1.50;1.40;;;12.70;99.90;;;;;;10330693;28;20228;-81
2023/11/03 12:01:36;;;;;;;1.57;1.47;;;12.80;99.90;;;;;;10318496;28;20204;-81
2023/11/03 12:06:39;;;;;;;1.63;1.30;;;12.80;99.90;;;;;;10313125;28;20219;-81
2023/11/03 12:11:42;;;;;;;1.70;1.30;;;12.80;99.20;;;;;;10307766;28;20603;-81
2023/11/03 12:16:46;;;;;;;1.60;1.50;;;12.80;99.70;;;;;;10319004;28;20223;-81
2023/11/03 12:21:51;;;;;;;1.50;1.40;;;12.80;99.90;;;;;;10311490;28;20219;-81
2023/11/03 12:26:54;;;;;;;1.20;1.20;;;12.90;99.80;;;;;;10313157;28;20251;-81
2023/11/03 12:31:59;;;;;;;1.50;1.40;;;12.90;99.90;;;;;;10331867;28;20215;-81
2023/11/03 12:37:04;;;;;;;1.43;1.33;;;13.00;99.50;;;;;;10327236;28;20283;-81
2023/11/03 12:42:09;;;;;;;1.33;1.33;;;13.00;99.10;;;;;;10327934;28;20207;-81
2023/11/03 12:47:12;;;;;;;0.83;0.83;;;12.90;98.80;;;;;;10343134;28;20274;-81
2023/11/03 12:52:16;;;;;;;1.10;1.00;;;13.00;98.00;;;;;;10328264;28;20200;-80
2023/11/03 12:57:34;;;;;;;1.50;1.40;;;13.00;98.80;;;;;;10326539;28;20643;-81
2023/11/03 13:02:39;;;;;;;1.17;1.10;;;13.00;98.40;;;;;;10330548;28;20206;-81
2023/11/03 13:07:42;;;;;;;2.90;1.30;;;13.00;98.50;;;;;;10327710;28;20208;-81
2023/11/03 13:12:45;;;;;;;1.37;0.80;;;12.90;97.90;;;;;;10331714;28;20232;-81
2023/11/03 13:17:48;;;;;;;5.77;3.80;;;12.90;98.00;;;;;;10333463;28;20219;-81
2023/11/03 13:22:52;;;;;;;1.50;1.40;;;12.90;97.20;;;;;;10309482;28;20229;-81
2023/11/03 13:27:54;;;;;;;1.23;1.13;;;12.80;98.00;;;;;;10312747;28;20224;-80
2023/11/03 13:32:57;;;;;;;1.30;1.20;;;12.90;97.40;;;;;;10323656;28;20315;-81
2023/11/03 13:37:59;;;;;;;2.10;1.00;;;12.80;97.30;;;;;;10312713;28;20288;-81
2023/11/03 13:43:02;;;;;;;1.80;1.40;;;12.70;97.10;;;;;;10321150;28;20224;-81
2023/11/03 13:48:07;;;;;;;1.87;1.60;;;12.60;97.80;;;;;;10335013;28;20211;-81
2023/11/03 13:53:09;;;;;;;1.40;1.40;;;12.60;98.20;;;;;;10339259;28;20238;-81
2023/11/03 13:58:11;;;;;;;1.83;1.50;;;12.60;98.60;;;;;;10332675;28;20246;-81
2023/11/03 14:03:14;;;;;;;1.80;1.30;;;12.60;99.40;;;;;;10316053;28;20271;-81
2023/11/03 14:08:16;;;;;;;3.53;1.40;;;12.60;98.00;;;;;;10328485;28;20640;-81
2023/11/03 14:13:18;;;;;;;1.90;1.70;;;12.60;98.90;;;;;;10330912;28;20294;-81
2023/11/03 14:18:22;;;;;;;2.77;1.60;;;12.60;98.80;;;;;;10327295;28;20234;-80
2023/11/03 14:23:29;;;;;;;1.30;1.20;;;12.50;99.40;;;;;;10330335;28;20224;-81
2023/11/03 14:28:31;;;;;;;2.80;1.53;;;12.50;99.60;;;;;;10331402;28;20595;-81
2023/11/03 14:33:35;;;;;;;2.40;1.63;;;12.50;99.50;;;;;;10305601;28;20629;-80
2023/11/03 14:38:39;;;;;;;1.30;1.20;;;12.40;98.30;;;;;;10325640;28;20227;-80
2023/11/03 14:43:41;;;;;;;1.83;1.50;;;12.40;98.60;;;;;;10337559;28;20302;-79
2023/11/03 14:48:44;;;;;;;2.33;1.40;;;12.30;99.40;;;;;;10341906;28;20223;-80
2023/11/03 14:53:46;;;;;;;3.87;1.50;;;12.30;99.80;;;;;;10310889;28;20259;-78
2023/11/03 14:58:50;;;;;;;1.70;1.60;;;12.30;99.90;;;;;;10323117;28;20681;-80
2023/11/03 15:03:53;;;;;;;2.70;1.20;;;12.20;99.90;;;;;;10333671;28;20223;-80
2023/11/03 15:08:55;;;;;;;1.80;1.70;;;12.00;99.90;;;;;;10334581;28;20219;-80
2023/11/03 15:13:58;;;;;;;2.40;2.20;;;11.80;99.90;;;;;;10331195;28;20232;-80
2023/11/03 15:19:03;;;;;;;3.47;3.03;;;11.70;99.90;;;;;;10334452;28;20227;-80
2023/11/03 15:24:06;;;;;;;3.80;3.50;;;11.60;99.90;;;;;;10330232;28;20224;-79
2023/11/03 15:29:08;;;;;;;3.20;3.00;;;11.50;99.90;;;;;;10328496;28;20199;-79
2023/11/03 15:34:11;;;;;;;2.50;2.37;;;11.50;99.90;;;;;;10316251;28;20298;-79
2023/11/03 15:39:27;;;;;;;3.13;1.83;;;11.50;99.90;;;;;;10320533;28;20321;-79
2023/11/03 15:44:30;;;;;;;2.20;2.00;;;11.40;99.90;;;;;;10313281;28;20223;-79
2023/11/03 15:49:33;;;;;;;2.70;2.50;;;11.40;99.90;;;;;;10333567;28;20642;-79
2023/11/03 15:54:35;;;;;;;3.10;2.50;;;11.40;99.90;;;;;;10326825;28;20227;-79
2023/11/03 15:59:37;;;;;;;2.53;2.33;;;11.40;99.90;;;;;;10331047;28;20219;-79
2023/11/03 16:04:41;;;;;;;3.87;3.27;;;11.40;99.90;;;;;;10334494;28;20231;-79
2023/11/03 16:09:42;;;;;;;3.17;2.97;;;11.40;99.90;;;;;;10334417;28;20717;-78
2023/11/03 16:14:45;;;;;;;6.63;6.13;;;11.10;99.90;;;;;;10327422;28;20228;-79
2023/11/03 16:19:48;;;;;;;8.17;6.37;;;11.00;99.90;;;;;;10333004;28;20216;-79
2023/11/03 16:24:51;;;;;;;4.90;4.60;;;10.80;99.90;;;;;;10326781;28;20218;-79
2023/11/03 16:29:57;;;;;;;7.93;7.33;;;10.70;99.90;;;;;;10321451;28;20189;-79
2023/11/03 16:35:01;;;;;;;8.30;7.70;;;10.50;99.90;;;;;;10327577;28;20242;-79
2023/11/03 16:40:04;;;;;;;4.93;4.63;;;10.40;99.90;;;;;;10320486;28;20277;-79
2023/11/03 16:45:09;;;;;;;6.10;5.60;;;10.20;99.90;;;;;;10324161;28;20219;-79
2023/11/03 16:50:13;;;;;;;6.70;6.10;;;10.20;99.90;;;;;;10326325;28;20278;-79
2023/11/03 16:55:17;;;;;;;6.10;5.60;;;10.10;99.90;;;;;;10302478;28;20217;-79
2023/11/03 17:00:19;;;;;;;6.10;5.70;;;10.00;99.90;;;;;;10313254;28;20223;-79
2023/11/03 17:05:22;;;;;;;5.73;5.43;;;9.90;99.90;;;;;;10332517;28;20223;-78
2023/11/03 17:10:24;;;;;;;6.20;5.60;;;9.80;99.90;;;;;;10316875;28;20200;-78
2023/11/03 17:15:26;;;;;;;6.07;5.47;;;9.80;99.90;;;;;;10318833;28;20227;-79
2023/11/03 17:20:29;;;;;;;6.30;5.80;;;9.70;99.90;;;;;;10318335;28;20723;-78
2023/11/03 17:25:31;;;;;;;6.30;5.20;;;9.70;99.90;;;;;;10317981;28;20749;-79
2023/11/03 17:30:33;;;;;;;6.80;6.40;;;9.60;99.90;;;;;;10323950;28;20218;-79
2023/11/03 17:35:36;;;;;;;6.87;6.43;;;9.70;99.90;;;;;;10317039;28;20314;-79
2023/11/03 17:40:39;;;;;;;5.83;5.43;;;9.60;99.90;;;;;;10332979;28;20208;-78
2023/11/03 17:45:41;;;;;;;6.50;6.10;;;9.60;99.90;;;;;;10314526;28;20290;-78
2023/11/03 17:50:45;;;;;;;7.67;7.07;;;9.50;99.90;;;;;;10323915;28;20211;-78
2023/11/03 17:55:47;;;;;;;6.67;4.90;;;9.50;99.90;;;;;;10337831;28;20231;-78
2023/11/03 18:00:49;;;;;;;6.40;5.90;;;9.50;99.90;;;;;;10324232;28;20195;-78
2023/11/03 18:05:52;;;;;;;6.33;5.80;;;9.50;99.90;;;;;;10323055;28;20762;-79
2023/11/03 18:10:55;;;;;;;5.43;4.90;;;9.50;99.90;;;;;;10321924;28;20287;-79
2023/11/03 18:15:57;;;;;;;4.97;4.67;;;9.50;99.90;;;;;;10323746;28;20243;-79
2023/11/03 18:21:00;;;;;;;5.07;4.67;;;9.50;99.90;;;;;;10325283;28;20199;-79
2023/11/03 18:26:02;;;;;;;4.30;4.10;;;9.50;99.90;;;;;;10346343;28;20219;-78
2023/11/03 18:31:04;;;;;;;5.40;4.90;;;9.40;99.90;;;;;;10331956;28;20200;-79
2023/11/03 18:36:08;;;;;;;4.60;4.30;;;9.40;99.90;;;;;;10322274;28;20226;-79
2023/11/03 18:41:10;;;;;;;4.60;4.20;;;9.40;99.90;;;;;;10337514;28;20215;-77
2023/11/03 18:46:12;;;;;;;4.40;4.00;;;9.40;99.90;;;;;;10309899;28;20230;-77
2023/11/03 18:51:15;;;;;;;4.63;4.23;;;9.40;99.90;;;;;;10317977;28;20246;-77
2023/11/03 18:56:18;;;;;;;5.23;4.73;;;9.30;99.90;;;;;;10315265;28;20238;-76
2023/11/03 19:01:20;;;;;;;5.50;4.57;;;9.30;99.90;;;;;;10313791;28;20215;-76
2023/11/03 19:06:24;;;;;;;4.87;4.47;;;9.20;99.90;;;;;;10313674;28;20231;-77
2023/11/03 19:11:26;;;;;;;5.40;4.03;;;9.20;99.90;;;;;;10316931;28;20208;-76
2023/11/03 19:16:28;;;;;;;7.60;5.90;;;9.20;99.90;;;;;;10318921;28;20286;-77
2023/11/03 19:21:31;;;;;;;6.57;5.40;;;9.20;99.90;;;;;;10299824;28;20210;-77
2023/11/03 19:26:33;;;;;;;7.07;5.93;;;9.10;99.90;;;;;;10303684;28;20657;-77
2023/11/03 19:31:38;;;;;;;6.97;5.97;;;9.10;99.90;;;;;;10317155;28;20208;-77
2023/11/03 19:36:42;;;;;;;5.20;4.43;;;9.10;99.90;;;;;;10316320;28;20290;-78
2023/11/03 19:41:45;;;;;;;3.90;3.60;;;9.00;99.90;;;;;;10320128;28;20199;-77
2023/11/03 19:46:47;;;;;;;5.57;3.87;;;9.10;99.90;;;;;;10313019;28;20223;-76
2023/11/03 19:51:50;;;;;;;4.20;3.73;;;9.10;99.90;;;;;;10323720;28;20233;-77
2023/11/03 19:56:53;;;;;;;3.93;3.70;;;9.10;99.90;;;;;;10322866;28;20310;-77
2023/11/03 20:01:54;;;;;;;3.00;2.80;;;9.10;99.90;;;;;;10320977;28;20223;-77
2023/11/03 20:06:59;;;;;;;3.67;3.37;;;9.10;99.90;;;;;;10320852;28;20215;-79
2023/11/03 20:12:02;;;;;;;2.93;2.73;;;9.10;99.90;;;;;;10313411;28;20287;-79
2023/11/03 20:17:06;;;;;;;3.57;3.27;;;9.10;99.90;;;;;;10332349;28;20705;-79
2023/11/03 20:22:09;;;;;;;2.97;2.77;;;9.10;99.90;;;;;;10320638;28;20197;-79
2023/11/03 20:27:12;;;;;;;3.97;3.57;;;9.20;99.90;;;;;;10297173;28;20236;-79
2023/11/03 20:32:14;;;;;;;3.77;3.50;;;9.20;99.90;;;;;;10295808;28;20247;-79
2023/11/03 20:37:17;;;;;;;2.80;2.60;;;9.10;99.90;;;;;;10312981;28;20247;-79
2023/11/03 20:42:19;;;;;;;5.43;4.47;;;9.10;99.90;;;;;;10336551;28;20204;-78
2023/11/03 20:47:21;;;;;;;3.30;3.10;;;9.10;99.90;;;;;;10334885;28;20223;-78
2023/11/03 20:52:25;;;;;;;5.13;3.60;;;9.10;99.90;;;;;;10337211;28;20270;-78
2023/11/03 20:57:27;;;;;;;3.53;3.30;;;9.10;99.90;;;;;;10338113;28;20223;-79
2023/11/03 21:02:30;;;;;;;3.70;3.33;;;9.10;99.90;;;;;;10337012;28;20199;-79
2023/11/03 21:07:33;;;;;;;3.43;3.23;;;9.10;99.90;;;;;;10333193;28;20202;-78
2023/11/03 21:12:35;;;;;;;3.40;3.20;;;9.10;99.90;;;;;;10338666;28;20215;-78
2023/11/03 21:17:37;;;;;;;3.30;3.10;;;9.10;99.90;;;;;;10329876;28;20224;-77
2023/11/03 21:22:40;;;;;;;3.17;2.97;;;9.10;99.90;;;;;;10314616;28;20208;-78
2023/11/03 21:27:42;;;;;;;4.50;3.70;;;9.10;99.90;;;;;;10309507;28;20654;-79
2023/11/03 21:32:44;;;;;;;3.47;3.27;;;9.10;99.90;;;;;;10309288;28;20600;-78
2023/11/03 21:37:48;;;;;;;4.50;3.30;;;9.00;99.90;;;;;;10306450;28;20300;-79
2023/11/03 21:42:50;;;;;;;3.77;3.47;;;9.00;99.90;;;;;;10307416;28;20775;-78
2023/11/03 21:47:52;;;;;;;4.13;3.83;;;9.10;99.90;;;;;;10315300;28;20291;-79
2023/11/03 21:52:55;;;;;;;3.90;3.40;;;9.00;99.90;;;;;;10331907;28;20235;-78
2023/11/03 21:57:57;;;;;;;3.87;3.03;;;9.00;99.90;;;;;;10307504;28;20702;-79
2023/11/03 22:02:59;;;;;;;4.60;3.70;;;9.00;99.90;;;;;;10312364;28;20223;-78
2023/11/03 22:08:03;;;;;;;4.33;3.93;;;9.00;99.90;;;;;;10329954;28;20661;-79
2023/11/03 22:13:05;;;;;;;4.90;4.43;;;9.00;99.90;;;;;;10320344;28;20224;-79
2023/11/03 22:18:06;;;;;;;4.43;4.10;;;9.00;99.90;;;;;;10311469;28;20220;-79
2023/11/03 22:23:11;;;;;;;4.17;3.77;;;8.90;99.90;;;;;;10305873;28;20745;-78
2023/11/03 22:28:13;;;;;;;3.93;3.63;;;8.90;99.90;;;;;;10305521;28;20203;-79
2023/11/03 22:33:15;;;;;;;3.50;3.20;;;8.90;99.90;;;;;;10309560;28;20789;-78
2023/11/03 22:38:19;;;;;;;5.00;4.17;;;8.90;99.90;;;;;;10326368;28;20328;-78
2023/11/03 22:43:21;;;;;;;4.70;4.30;;;8.90;99.90;;;;;;10302097;28;20680;-79
2023/11/03 22:48:23;;;;;;;2.77;2.57;;;8.90;99.90;;;;;;10314400;28;20208;-77
2023/11/03 22:53:27;;;;;;;4.60;4.10;;;8.80;99.90;;;;;;10321071;28;20226;-79
2023/11/03 22:58:29;;;;;;;3.80;3.50;;;8.80;99.90;;;;;;10320030;28;20742;-78
2023/11/03 23:03:31;;;;;;;3.80;3.50;;;8.80;99.90;;;;;;10319430;28;20249;-78
2023/11/03 23:08:35;;;;;;;3.30;3.00;;;8.80;99.90;;;;;;10318542;28;20190;-79
2023/11/03 23:13:38;;;;;;;4.80;2.97;;;8.70;99.90;;;;;;10319933;28;20365;-78
2023/11/03 23:18:40;;;;;;;4.17;3.70;;;8.70;99.90;;;;;;10319278;28;20623;-79
2023/11/03 23:23:46;;;;;;;3.57;3.07;;;8.70;99.90;;;;;;10318497;28;20488;-79
2023/11/03 23:28:48;;;;;;;5.07;3.40;;;8.70;99.90;;;;;;10319883;28;20199;-78
2023/11/03 23:33:50;;;;;;;5.00;2.97;;;8.70;99.90;;;;;;10317286;28;20264;-77
2023/11/03 23:38:54;;;;;;;3.20;3.00;;;8.70;99.90;;;;;;10318546;28;20252;-79
2023/11/03 23:43:56;;;;;;;4.10;3.20;;;8.60;99.90;;;;;;10325669;28;20300;-79
2023/11/03 23:48:59;;;;;;;2.77;2.57;;;8.60;99.90;;;;;;10318055;28;20681;-79
2023/11/03 23:54:02;;;;;;;3.03;2.70;;;8.60;99.90;;;;;;10323651;28;20251;-79
2023/11/03 23:59:04;;;;;;;3.47;2.30;;;8.60;99.90;;;;;;10325788;28;20220;-79
